Terminal Aerodrome Forecast
Issued by NWS

Home | Current Version | Previous Version | Graphics & Text | Print | Product List | Glossary On
Versions: 1 2 3 4 5 6 7 8 9 10 11 12 13 14 15 16 17 18 19 20 21 22 23 24 25
891
FTUS43 KBIS 230528
TAFJMS
TAF
KJMS 230528Z 2306/2406 07011KT P6SM VCSH OVC045
     FM231000 07012G18KT P6SM VCSH SCT025 OVC035
     FM231200 09012G16KT P6SM OVC025
     FM231700 11014G21KT 5SM SHRA BR OVC015
     FM232200 11017G24KT P6SM VCSH SCT004 OVC008=

USA.gov is the U.S. government's official web portal to all federal, state and local government web resources and services.